createdAt,value
2022-09-02T00:01:41.101Z,17.00
2022-09-02T00:04:13.934Z,17.45
2022-09-02T00:06:44.042Z,16.50
2022-09-02T00:09:14.693Z,15.60
2022-09-02T00:11:44.344Z,20.85
2022-09-02T00:14:16.910Z,16.50
2022-09-02T00:16:51.953Z,13.85
2022-09-02T00:19:24.245Z,16.88
2022-09-02T00:21:53.074Z,17.88
2022-09-02T00:24:22.085Z,16.30
2022-09-02T00:26:50.820Z,15.57
2022-09-02T00:29:24.903Z,16.83
2022-09-02T00:31:53.206Z,17.40
2022-09-02T00:34:22.901Z,16.13
2022-09-02T00:36:51.082Z,21.67
2022-09-02T00:39:19.262Z,17.98
2022-09-02T00:41:47.540Z,18.27
2022-09-02T00:44:18.660Z,15.32
2022-09-02T00:46:47.554Z,16.30
2022-09-02T00:49:19.627Z,17.63
2022-09-02T00:51:55.929Z,16.73
2022-09-02T00:54:27.190Z,17.45
2022-09-02T00:56:56.568Z,19.98
2022-09-02T00:59:31.722Z,19.23
2022-09-02T01:02:00.247Z,19.35
2022-09-02T01:04:29.395Z,19.38
2022-09-02T01:06:59.039Z,17.65
2022-09-02T01:09:27.383Z,16.67
2022-09-02T01:11:55.550Z,18.00
2022-09-02T01:14:24.235Z,19.38
2022-09-02T01:17:01.170Z,22.13
2022-09-02T01:19:35.037Z,19.40
2022-09-02T01:22:16.206Z,17.27
2022-09-02T01:24:44.721Z,23.10
2022-09-02T01:27:16.844Z,23.38
2022-09-02T01:29:45.571Z,19.98
2022-09-02T01:32:13.836Z,19.15
2022-09-02T01:34:43.307Z,23.58
2022-09-02T01:37:12.896Z,23.67
2022-09-02T01:39:41.298Z,26.00
2022-09-02T01:42:09.689Z,23.33
2022-09-02T01:44:44.079Z,21.90
2022-09-02T01:47:12.298Z,17.58
2022-09-02T01:49:40.624Z,19.40
2022-09-02T01:52:09.859Z,19.65
2022-09-02T01:54:40.337Z,16.70
2022-09-02T01:57:09.069Z,19.02
2022-09-02T01:59:37.180Z,15.98
2022-09-02T02:02:05.886Z,18.35
2022-09-02T02:04:35.161Z,14.25
2022-09-02T02:07:04.749Z,20.58
2022-09-02T02:09:32.932Z,19.20
2022-09-02T02:12:02.587Z,16.10
2022-09-02T02:14:31.893Z,18.13
2022-09-02T02:17:00.081Z,21.00
2022-09-02T02:19:28.760Z,18.45
2022-09-02T02:21:57.372Z,22.58
2022-09-02T02:24:26.243Z,17.25
2022-09-02T02:26:54.492Z,17.20
2022-09-02T02:29:24.028Z,16.38
2022-09-02T02:31:52.466Z,16.13
2022-09-02T02:34:20.685Z,18.40
2022-09-02T02:36:48.814Z,14.98
2022-09-02T02:39:17.325Z,19.02
2022-09-02T02:41:46.713Z,15.05
2022-09-02T02:44:15.215Z,16.00
2022-09-02T02:46:45.544Z,15.35
2022-09-02T02:49:13.939Z,17.05
2022-09-02T02:51:42.065Z,12.73
2022-09-02T02:54:11.294Z,14.77
2022-09-02T02:56:39.717Z,15.70
2022-09-02T02:59:08.043Z,14.43
2022-09-02T03:01:36.374Z,14.98
2022-09-02T03:04:06.493Z,15.50
2022-09-02T03:06:35.847Z,16.50
2022-09-02T03:09:04.180Z,14.38
2022-09-02T03:11:32.299Z,12.75
2022-09-02T03:14:00.651Z,14.07
2022-09-02T03:16:28.950Z,12.77
2022-09-02T03:18:57.298Z,13.35
2022-09-02T03:21:26.869Z,16.13
2022-09-02T03:23:56.059Z,14.55
2022-09-02T03:26:27.240Z,19.23
2022-09-02T03:28:56.983Z,13.50
2022-09-02T03:31:27.367Z,12.27
2022-09-02T03:33:56.254Z,16.88
2022-09-02T03:36:28.263Z,19.25
2022-09-02T03:38:57.282Z,20.35
2022-09-02T03:41:25.884Z,16.55
2022-09-02T03:43:54.209Z,17.67
2022-09-02T03:46:22.439Z,14.77
2022-09-02T03:48:51.928Z,16.48
2022-09-02T03:51:20.377Z,15.90
2022-09-02T03:53:50.239Z,19.75
2022-09-02T03:56:18.795Z,21.65
2022-09-02T03:58:50.163Z,14.88
2022-09-02T04:01:22.528Z,23.58
2022-09-02T04:03:51.590Z,14.73
2022-09-02T04:06:22.107Z,13.15
2022-09-02T04:08:52.329Z,17.98
2022-09-02T04:11:23.734Z,17.30
2022-09-02T04:13:54.221Z,12.90
2022-09-02T04:16:29.035Z,13.50
2022-09-02T04:18:58.339Z,18.55
2022-09-02T04:21:27.158Z,17.15
2022-09-02T04:23:58.246Z,16.10
2022-09-02T04:26:26.505Z,18.27
2022-09-02T04:28:54.995Z,13.98
2022-09-02T04:31:26.231Z,17.85
2022-09-02T04:33:54.480Z,19.60
2022-09-02T04:36:24.233Z,20.27
2022-09-02T04:38:53.091Z,13.93
2022-09-02T04:41:25.432Z,16.27
2022-09-02T04:43:56.595Z,14.52
2022-09-02T04:46:34.557Z,14.88
2022-09-02T04:49:03.559Z,20.27
2022-09-02T04:51:32.763Z,18.70
2022-09-02T04:54:02.097Z,15.10
2022-09-02T04:56:32.934Z,16.00
2022-09-02T04:59:01.950Z,18.10
2022-09-02T05:01:33.216Z,17.05
2022-09-02T05:04:03.378Z,18.90
2022-09-02T05:06:32.227Z,19.90
2022-09-02T05:09:02.414Z,18.80
2022-09-02T05:11:34.311Z,20.08
2022-09-02T05:14:06.684Z,16.15
2022-09-02T05:16:38.078Z,17.58
2022-09-02T05:19:09.739Z,18.15
2022-09-02T05:21:41.270Z,17.90
2022-09-02T05:24:09.472Z,18.38
2022-09-02T05:26:44.699Z,19.83
2022-09-02T05:29:13.787Z,25.52
2022-09-02T05:31:43.627Z,18.42
2022-09-02T05:34:12.013Z,21.50
2022-09-02T05:36:40.155Z,30.45
2022-09-02T05:39:09.572Z,20.88
2022-09-02T05:41:40.374Z,18.77
2022-09-02T05:44:09.001Z,20.08
2022-09-02T05:46:38.125Z,16.83
2022-09-02T05:49:18.376Z,20.55
2022-09-02T05:51:49.095Z,20.58
2022-09-02T05:54:21.524Z,26.25
2022-09-02T05:56:53.875Z,20.90
2022-09-02T05:59:22.521Z,19.30
2022-09-02T06:01:51.800Z,23.35
2022-09-02T06:04:21.932Z,20.48
2022-09-02T06:06:50.613Z,28.38
2022-09-02T06:09:21.017Z,28.50
2022-09-02T06:11:51.517Z,19.65
2022-09-02T06:14:23.414Z,16.90
2022-09-02T06:16:53.840Z,17.13
2022-09-02T06:19:22.352Z,15.63
2022-09-02T06:21:50.710Z,20.95
2022-09-02T06:24:19.237Z,17.45
2022-09-02T06:26:47.290Z,17.67
2022-09-02T06:29:17.480Z,23.90
2022-09-02T06:31:47.408Z,18.52
2022-09-02T06:34:16.774Z,21.73
2022-09-02T06:36:48.932Z,18.23
2022-09-02T06:39:20.066Z,18.30
2022-09-02T06:41:49.657Z,19.83
2022-09-02T06:44:21.666Z,15.63
2022-09-02T06:46:55.182Z,21.15
2022-09-02T06:49:25.088Z,17.10
2022-09-02T06:51:56.710Z,21.83
2022-09-02T06:54:25.588Z,18.63
2022-09-02T06:56:54.048Z,20.98
2022-09-02T06:59:23.982Z,17.23
2022-09-02T07:01:52.650Z,17.90
2022-09-02T07:04:38.492Z,18.10
2022-09-02T07:07:08.614Z,13.07
2022-09-02T07:09:37.092Z,17.88
2022-09-02T07:12:06.371Z,14.20
2022-09-02T07:14:39.798Z,17.98
2022-09-02T07:17:08.677Z,14.73
2022-09-02T07:19:37.202Z,18.77
2022-09-02T07:22:07.473Z,14.80
2022-09-02T07:24:36.290Z,16.38
2022-09-02T07:27:05.957Z,18.13
2022-09-02T07:29:35.437Z,14.55
2022-09-02T07:32:06.100Z,14.48
2022-09-02T07:34:34.245Z,19.40
2022-09-02T07:37:06.204Z,12.63
2022-09-02T07:39:36.934Z,12.57
2022-09-02T07:42:05.849Z,14.63
2022-09-02T07:44:36.694Z,12.73
2022-09-02T07:47:07.823Z,14.95
2022-09-02T07:52:25.296Z,15.20
2022-09-02T07:54:53.688Z,14.85
2022-09-02T07:57:21.810Z,13.80
2022-09-02T07:59:49.963Z,15.65
2022-09-02T08:02:19.795Z,18.70
2022-09-02T08:04:48.490Z,12.60
2022-09-02T08:07:19.107Z,13.85
2022-09-02T08:09:47.263Z,14.77
2022-09-02T08:12:17.812Z,16.00
2022-09-02T08:14:49.001Z,20.33
2022-09-02T08:17:17.865Z,17.77
2022-09-02T08:19:47.632Z,16.10
2022-09-02T08:22:16.440Z,20.90
2022-09-02T08:24:44.712Z,38.22
2022-09-02T08:27:13.082Z,19.60
2022-09-02T08:29:41.372Z,21.02
2022-09-02T08:32:09.691Z,19.73
2022-09-02T08:34:37.982Z,21.60
2022-09-02T08:37:07.651Z,13.23
2022-09-02T08:39:36.609Z,15.30
2022-09-02T08:42:13.608Z,15.07
2022-09-02T08:44:42.299Z,17.05
2022-09-02T08:47:16.698Z,14.05
2022-09-02T08:49:47.731Z,15.07
2022-09-02T08:52:29.990Z,17.17
2022-09-02T08:54:58.873Z,20.40
2022-09-02T08:57:28.429Z,19.55
2022-09-02T09:00:01.088Z,22.38
2022-09-02T09:02:47.286Z,22.80
2022-09-02T09:05:24.988Z,25.88
2022-09-02T09:08:13.973Z,27.10
2022-09-02T09:10:57.211Z,23.25
2022-09-02T09:13:47.700Z,24.95
2022-09-02T09:16:26.358Z,21.70
2022-09-02T09:19:08.209Z,25.05
2022-09-02T09:21:37.201Z,32.92
2022-09-02T09:24:10.365Z,30.38
2022-09-02T09:26:42.311Z,42.30
2022-09-02T09:29:10.838Z,35.97
2022-09-02T09:31:39.934Z,31.17
2022-09-02T09:34:10.952Z,33.85
2022-09-02T09:36:59.809Z,31.55
2022-09-02T09:39:32.039Z,29.90
2022-09-02T09:42:01.964Z,23.15
2022-09-02T09:44:44.933Z,19.13
2022-09-02T09:47:19.571Z,16.55
2022-09-02T09:49:49.908Z,18.85
2022-09-02T09:52:27.484Z,16.10
2022-09-02T09:55:24.893Z,15.40
2022-09-02T09:57:55.072Z,15.07
2022-09-02T10:00:32.164Z,13.85
2022-09-02T10:03:02.412Z,15.57
2022-09-02T10:05:34.904Z,16.83
2022-09-02T10:08:13.139Z,13.68
2022-09-02T10:10:58.389Z,15.32
2022-09-02T10:13:31.237Z,16.10
2022-09-02T10:16:35.698Z,14.45
2022-09-02T10:19:14.094Z,14.77
2022-09-02T10:22:02.421Z,15.93
2022-09-02T10:24:46.404Z,15.73
2022-09-02T10:27:18.603Z,13.55
2022-09-02T10:29:59.130Z,15.07
2022-09-02T10:32:40.506Z,14.15
2022-09-02T10:35:19.631Z,13.50
2022-09-02T10:38:07.899Z,14.23
2022-09-02T10:40:43.013Z,11.35
2022-09-02T10:43:27.634Z,12.73
2022-09-02T10:46:01.364Z,13.00
2022-09-02T10:48:42.976Z,14.93
2022-09-02T10:51:20.616Z,13.18
2022-09-02T10:54:01.936Z,17.40
2022-09-02T10:56:36.914Z,16.75
2022-09-02T10:59:11.528Z,19.10
2022-09-02T11:01:46.664Z,16.55
2022-09-02T11:04:24.252Z,15.70
2022-09-02T11:07:03.703Z,13.88
2022-09-02T11:09:38.386Z,13.27
2022-09-02T11:12:12.773Z,16.77
2022-09-02T11:14:54.816Z,15.85
2022-09-02T11:17:30.769Z,16.52
2022-09-02T11:20:09.610Z,20.63
2022-09-02T11:22:46.501Z,23.27
2022-09-02T11:25:18.898Z,21.98
2022-09-02T11:27:54.666Z,22.98
2022-09-02T11:30:28.524Z,16.08
2022-09-02T11:33:01.241Z,21.23
2022-09-02T11:35:38.938Z,24.70
2022-09-02T11:38:20.276Z,25.98
2022-09-02T11:44:05.555Z,24.63
2022-09-02T11:46:49.998Z,20.05
2022-09-02T11:49:34.789Z,21.33
2022-09-02T11:52:24.096Z,24.25
2022-09-02T11:55:03.414Z,26.75
2022-09-02T11:57:34.050Z,25.50
2022-09-02T12:00:29.875Z,19.95
2022-09-02T12:03:38.855Z,23.83
2022-09-02T12:06:11.793Z,20.52
2022-09-02T12:09:07.708Z,22.88
2022-09-02T12:11:45.541Z,25.50
2022-09-02T12:15:07.413Z,24.42
2022-09-02T12:18:17.520Z,25.02
2022-09-02T12:21:16.470Z,24.95
2022-09-02T12:24:27.346Z,26.17
2022-09-02T12:27:11.647Z,23.23
2022-09-02T12:29:39.922Z,23.55
2022-09-02T12:32:10.592Z,25.08
2022-09-02T12:34:55.004Z,20.23
2022-09-02T12:37:57.004Z,18.55
2022-09-02T12:40:32.298Z,17.75
2022-09-02T12:43:04.798Z,18.92
2022-09-02T12:45:34.804Z,18.23
2022-09-02T12:48:11.286Z,19.65
2022-09-02T12:50:55.520Z,19.75
2022-09-02T12:53:36.457Z,26.15
2022-09-02T12:56:17.809Z,24.65
2022-09-02T12:58:48.686Z,25.08
2022-09-02T13:01:21.080Z,27.33
2022-09-02T13:04:14.424Z,23.80
2022-09-02T13:07:02.171Z,20.48
2022-09-02T13:10:12.940Z,20.67
2022-09-02T13:13:03.556Z,20.90
2022-09-02T13:15:40.999Z,18.75
2022-09-02T13:18:35.505Z,21.77
2022-09-02T13:21:51.253Z,18.23
2022-09-02T13:24:50.564Z,19.90
2022-09-02T13:27:59.418Z,17.85
2022-09-02T13:30:41.579Z,20.67
2022-09-02T13:33:11.645Z,17.67
2022-09-02T13:35:41.797Z,21.08
2022-09-02T13:38:13.668Z,20.98
2022-09-02T13:40:46.290Z,22.63
2022-09-02T13:43:21.207Z,24.10
2022-09-02T13:45:51.091Z,22.85
2022-09-02T13:48:22.335Z,23.35
2022-09-02T13:50:53.639Z,28.42
2022-09-02T13:53:45.484Z,25.75
2022-09-02T13:56:17.669Z,23.52
2022-09-02T13:58:52.747Z,20.88
2022-09-02T14:01:31.331Z,21.75
2022-09-02T14:04:01.783Z,21.23
2022-09-02T14:06:33.485Z,23.58
2022-09-02T14:09:04.517Z,26.60
2022-09-02T14:11:43.285Z,26.75
2022-09-02T14:14:18.731Z,25.90
2022-09-02T14:16:46.958Z,24.30
2022-09-02T14:19:26.345Z,24.50
2022-09-02T14:21:57.503Z,26.40
2022-09-02T14:24:27.919Z,23.73
2022-09-02T14:26:57.412Z,23.35
2022-09-02T14:29:30.115Z,27.50
2022-09-02T14:32:10.161Z,29.73
2022-09-02T14:34:40.011Z,30.55
2022-09-02T14:37:21.998Z,30.85
2022-09-02T14:39:54.491Z,27.63
2022-09-02T14:42:22.795Z,27.83
2022-09-02T14:44:52.554Z,22.45
2022-09-02T14:47:24.435Z,26.92
2022-09-02T14:49:55.666Z,20.58
2022-09-02T14:52:27.779Z,27.23
2022-09-02T14:54:58.872Z,19.42
2022-09-02T14:57:32.919Z,21.70
2022-09-02T15:00:07.940Z,23.17
2022-09-02T15:02:38.676Z,25.73
2022-09-02T15:05:08.900Z,29.08
2022-09-02T15:07:37.165Z,31.58
2022-09-02T15:10:08.276Z,26.83
2022-09-02T15:12:41.247Z,25.75
2022-09-02T15:15:11.083Z,27.17
2022-09-02T15:17:39.604Z,22.27
2022-09-02T15:20:11.169Z,21.63
2022-09-02T15:22:39.633Z,21.85
2022-09-02T15:25:10.075Z,25.90
2022-09-02T15:27:38.252Z,46.63
2022-09-02T15:30:09.555Z,27.90
2022-09-02T15:32:39.410Z,21.27
2022-09-02T15:35:10.928Z,22.45
2022-09-02T15:37:39.076Z,18.23
2022-09-02T15:40:09.262Z,17.90
2022-09-02T15:42:37.993Z,20.70
2022-09-02T15:45:09.053Z,18.92
2022-09-02T15:47:39.440Z,15.65
2022-09-02T15:50:08.263Z,15.70
2022-09-02T15:52:37.427Z,13.55
2022-09-02T15:55:06.203Z,12.60
2022-09-02T15:57:34.369Z,11.32
2022-09-02T16:00:02.495Z,14.63
2022-09-02T16:02:35.136Z,15.45
2022-09-02T16:05:04.967Z,14.35
2022-09-02T16:07:33.454Z,19.10
2022-09-02T16:10:03.748Z,15.50
2022-09-02T16:12:31.960Z,21.13
2022-09-02T16:15:00.521Z,21.08
2022-09-02T16:17:29.127Z,29.35
2022-09-02T16:19:57.267Z,51.78
2022-09-02T16:22:26.737Z,33.95
2022-09-02T16:24:54.822Z,23.42
2022-09-02T16:27:42.922Z,24.05
2022-09-02T16:30:11.803Z,18.90
2022-09-02T16:32:40.617Z,20.23
2022-09-02T16:35:10.079Z,19.25
2022-09-02T16:37:39.800Z,33.85
2022-09-02T16:40:08.964Z,25.08
2022-09-02T16:42:38.368Z,28.52
2022-09-02T16:45:07.429Z,33.20
2022-09-02T16:47:35.585Z,23.77
2022-09-02T16:50:03.868Z,29.50
2022-09-02T16:52:34.988Z,26.25
2022-09-02T16:55:04.493Z,36.35
2022-09-02T16:57:32.521Z,42.70
2022-09-02T17:00:01.313Z,31.27
2022-09-02T17:02:30.233Z,27.23
2022-09-02T17:04:58.375Z,30.30
2022-09-02T17:07:26.618Z,23.27
2022-09-02T17:09:54.675Z,21.50
2022-09-02T17:12:24.249Z,19.70
2022-09-02T17:14:52.607Z,21.38
2022-09-02T17:17:20.664Z,22.98
2022-09-02T17:19:48.777Z,20.20
2022-09-02T17:22:16.938Z,20.80
2022-09-02T17:24:45.142Z,19.92
2022-09-02T17:27:13.328Z,20.40
2022-09-02T17:29:50.532Z,19.83
2022-09-02T17:32:19.200Z,18.02
2022-09-02T17:34:47.431Z,19.75
2022-09-02T17:37:15.488Z,19.42
2022-09-02T17:39:43.768Z,17.77
2022-09-02T17:42:12.272Z,21.75
2022-09-02T17:44:40.632Z,22.08
2022-09-02T17:47:12.453Z,26.60
2022-09-02T17:49:44.947Z,27.00
2022-09-02T17:52:14.737Z,22.05
2022-09-02T17:54:43.429Z,23.15
2022-09-02T17:57:25.083Z,22.98
2022-09-02T18:00:10.615Z,21.65
2022-09-02T18:03:26.090Z,16.08
2022-09-02T18:06:10.333Z,18.45
2022-09-02T18:08:49.930Z,25.23
2022-09-02T18:11:18.316Z,20.77
2022-09-02T18:14:00.035Z,28.30
2022-09-02T18:16:36.617Z,42.42
2022-09-02T18:19:16.441Z,37.40
2022-09-02T18:21:54.382Z,30.73
2022-09-02T18:24:33.761Z,33.65
2022-09-02T18:27:17.061Z,27.60
2022-09-02T18:30:03.264Z,25.95
2022-09-02T18:32:45.845Z,22.67
2022-09-02T18:35:26.546Z,23.83
2022-09-02T18:38:06.884Z,19.50
2022-09-02T18:40:44.575Z,22.35
2022-09-02T18:43:21.073Z,23.52
2022-09-02T18:45:50.866Z,19.45
2022-09-02T18:48:23.116Z,18.63
2022-09-02T18:50:56.082Z,19.77
2022-09-02T18:53:30.037Z,21.30
2022-09-02T18:56:03.889Z,19.85
2022-09-02T18:58:39.730Z,23.27
2022-09-02T19:01:15.664Z,22.00
2022-09-02T19:03:43.758Z,21.60
2022-09-02T19:06:19.839Z,21.58
2022-09-02T19:08:55.419Z,18.92
2022-09-02T19:11:25.803Z,17.67
2022-09-02T19:13:56.707Z,16.67
2022-09-02T19:16:27.842Z,15.60
2022-09-02T19:18:56.406Z,16.55
2022-09-02T19:21:32.626Z,15.07
2022-09-02T19:24:05.995Z,16.75
2022-09-02T19:26:35.015Z,14.38
2022-09-02T19:29:04.289Z,14.10
2022-09-02T19:31:32.434Z,13.52
2022-09-02T19:34:03.980Z,10.57
2022-09-02T19:36:34.103Z,11.50
2022-09-02T19:39:04.226Z,12.52
2022-09-02T19:41:32.377Z,14.25
2022-09-02T19:44:00.524Z,13.40
2022-09-02T19:47:11.778Z,11.40
2022-09-02T19:49:17.137Z,13.50
2022-09-02T19:51:45.415Z,15.98
2022-09-02T19:54:17.988Z,14.50
2022-09-02T19:56:46.575Z,18.10
2022-09-02T19:59:15.895Z,20.67
2022-09-02T20:01:44.092Z,14.65
2022-09-02T20:04:12.557Z,14.25
2022-09-02T20:06:40.780Z,15.20
2022-09-02T20:09:09.663Z,10.80
2022-09-02T20:11:41.174Z,15.07
2022-09-02T20:14:09.534Z,15.18
2022-09-02T20:16:37.665Z,13.32
2022-09-02T20:19:05.735Z,14.63
2022-09-02T20:21:43.463Z,16.80
2022-09-02T20:24:15.373Z,14.35
2022-09-02T20:26:56.774Z,15.25
2022-09-02T20:29:37.975Z,18.70
2022-09-02T20:32:15.059Z,16.40
2022-09-02T20:34:55.410Z,16.15
2022-09-02T20:37:36.268Z,20.08
2022-09-02T20:40:22.025Z,14.60
2022-09-02T20:43:18.153Z,17.65
2022-09-02T20:45:53.810Z,19.27
2022-09-02T20:48:39.633Z,16.40
2022-09-02T20:51:13.628Z,16.60
2022-09-02T20:54:07.630Z,16.35
2022-09-02T20:56:45.060Z,14.23
2022-09-02T20:59:23.981Z,16.05
2022-09-02T21:01:56.893Z,12.85
2022-09-02T21:04:33.590Z,16.58
2022-09-02T21:07:06.062Z,17.05
2022-09-02T21:09:42.387Z,13.43
2022-09-02T21:12:22.076Z,15.05
2022-09-02T21:15:00.290Z,15.70
2022-09-02T21:17:37.470Z,16.65
2022-09-02T21:20:15.616Z,13.02
2022-09-02T21:22:48.286Z,15.85
2022-09-02T21:25:25.030Z,15.60
2022-09-02T21:27:58.042Z,13.55
2022-09-02T21:30:32.989Z,15.57
2022-09-02T21:33:02.332Z,17.27
2022-09-02T21:35:36.620Z,18.23
2022-09-02T21:38:08.478Z,13.30
2022-09-02T21:40:58.167Z,12.52
2022-09-02T21:43:42.450Z,20.98
2022-09-02T21:46:26.057Z,12.93
2022-09-02T21:49:03.129Z,14.60
2022-09-02T21:51:36.145Z,13.75
2022-09-02T21:54:31.854Z,14.98
2022-09-02T21:57:19.134Z,16.88
2022-09-02T22:00:06.327Z,14.68
2022-09-02T22:02:46.468Z,17.63
2022-09-02T22:05:29.150Z,17.23
2022-09-02T22:08:04.248Z,15.55
2022-09-02T22:10:39.250Z,13.95
2022-09-02T22:13:08.371Z,16.05
2022-09-02T22:15:58.213Z,17.70
2022-09-02T22:18:39.541Z,21.02
2022-09-02T22:21:17.209Z,16.88
2022-09-02T22:23:45.359Z,15.32
2022-09-02T22:26:30.766Z,18.02
2022-09-02T22:29:03.890Z,18.90
2022-09-02T22:31:36.202Z,17.92
2022-09-02T22:34:08.835Z,20.30
2022-09-02T22:36:49.036Z,22.88
2022-09-02T22:39:17.725Z,22.27
2022-09-02T22:41:54.374Z,20.63
2022-09-02T22:45:07.828Z,22.98
2022-09-02T22:47:56.684Z,23.50
2022-09-02T22:50:49.968Z,23.80
2022-09-02T22:53:18.259Z,22.40
2022-09-02T22:56:02.518Z,18.45
2022-09-02T22:58:56.153Z,20.45
2022-09-02T23:01:34.472Z,21.20
2022-09-02T23:04:20.015Z,18.63
2022-09-02T23:06:49.683Z,18.17
2022-09-02T23:09:18.618Z,17.88
2022-09-02T23:11:57.378Z,17.02
2022-09-02T23:14:35.508Z,18.55
2022-09-02T23:17:33.820Z,18.17
2022-09-02T23:20:11.264Z,16.80
2022-09-02T23:23:03.369Z,19.42
2022-09-02T23:25:50.261Z,19.20
2022-09-02T23:28:20.887Z,19.05
2022-09-02T23:31:03.660Z,15.32
2022-09-02T23:33:46.100Z,20.00
2022-09-02T23:36:21.597Z,19.15
2022-09-02T23:39:18.952Z,16.65
2022-09-02T23:41:47.398Z,20.92
2022-09-02T23:44:16.605Z,16.83
2022-09-02T23:47:00.537Z,19.67
2022-09-02T23:49:39.116Z,19.30
2022-09-02T23:52:16.279Z,17.88
2022-09-02T23:55:04.982Z,19.63
2022-09-02T23:58:01.517Z,17.17
